Nichioh Maru — JD3267 — position and weather

sailwx.info

Track history (hours):
 
Tides and Currents Weather Stations Pressure Air Temp Water Temp Dewpoint Dewpoint Depression Visibility Wind Speed Wind Dir Waves Ship Positions

Nichioh Maru

Last reported at 2017-Nov-17 22:28 UTC. Time now 2017-Nov-17 22:53 UTC.
Position N 35°19' E 139°39'.

Length 170 m; draft 6.5 m.

Type: Cargo ship. MMSI: 431003232.

Date/timePositionNaut miles runAvg speedWind from/ knotsBaromVisibWave heightAir tempDewpointWater temp
2017-Nov-17 22:28N 35°19' E 139°39'0 0.0
2017-Nov-17 21:58N 35°19' E 139°39'0 0.0
2017-Nov-17 21:22N 35°19' E 139°39'0 0.0
2017-Nov-17 20:58N 35°19' E 139°39'0 0.0
2017-Nov-17 20:28N 35°19' E 139°39'0 0.0
2017-Nov-17 19:58N 35°19' E 139°39'0 0.0
2017-Nov-17 19:28N 35°19' E 139°39'0 0.0
2017-Nov-17 18:58N 35°19' E 139°39'0 0.0
2017-Nov-17 18:28N 35°19' E 139°39'0 0.0
2017-Nov-17 17:58N 35°19' E 139°39'0 0.0
2017-Nov-17 17:28N 35°19' E 139°39'0 0.0
2017-Nov-17 16:58N 35°19' E 139°39'0 0.0
2017-Nov-17 16:28N 35°19' E 139°39'0 0.0
2017-Nov-17 15:58N 35°19' E 139°39'0 0.0
2017-Nov-17 15:28N 35°19' E 139°39'0 0.0
2017-Nov-17 14:58N 35°19' E 139°39'0 0.0
2017-Nov-17 14:28N 35°19' E 139°39'0 0.0
2017-Nov-17 13:58N 35°19' E 139°39'0 0.0
2017-Nov-17 13:28N 35°19' E 139°39'0 0.0
2017-Nov-17 12:58N 35°19' E 139°39'0 0.0
2017-Nov-17 12:28N 35°19' E 139°39'0 0.0
2017-Nov-17 11:58N 35°19' E 139°39'0 0.0
2017-Nov-17 11:28N 35°19' E 139°39'0 0.0
2017-Nov-17 10:58N 35°19' E 139°39'0 0.0
2017-Nov-17 10:28N 35°19' E 139°39'0 0.0
2017-Nov-17 09:58N 35°19' E 139°39'0 0.0
2017-Nov-17 09:28N 35°19' E 139°39'0 0.0
2017-Nov-17 08:58N 35°19' E 139°39'0 0.0
2017-Nov-17 08:28N 35°19' E 139°39'0 0.0
2017-Nov-17 07:58N 35°19' E 139°39'0 0.0
2017-Nov-17 07:28N 35°19' E 139°39'0 0.0
2017-Nov-17 06:58N 35°19' E 139°39'0 0.0
2017-Nov-17 06:28N 35°19' E 139°39'0 0.0
2017-Nov-17 05:59N 35°19' E 139°39'3 5.7
2017-Nov-17 05:31N 35°20' E 139°42'5 9.7
2017-Nov-17 05:00N 35°25' E 139°41'0 0.5
2017-Nov-17 04:29N 35°25' E 139°41'0 0.0
2017-Nov-17 03:59N 35°25' E 139°41'0 0.0
2017-Nov-17 03:28N 35°25' E 139°41'0 0.0
2017-Nov-17 02:59N 35°25' E 139°41'0 0.0
2017-Nov-17 02:29N 35°25' E 139°41'0 0.0
2017-Nov-17 01:59N 35°25' E 139°41'0 0.0
2017-Nov-17 01:29N 35°25' E 139°41'0 0.0
2017-Nov-17 00:59N 35°25' E 139°41'1 2.4
2017-Nov-17 00:30N 35°25' E 139°42'611.6
2017-Nov-17 00:00N 35°19' E 139°43'612.2
2017-Nov-16 23:31N 35°14' E 139°47'816.8
2017-Nov-16 23:00N 35°05' E 139°45'1019.3
2017-Nov-16 22:30N 34°59' E 139°36'23617.8
2017-Nov-16 09:14N 33°55' E 134°60'621.2
2017-Nov-16 08:56N 34°01' E 134°60'920.8
2017-Nov-16 08:30N 34°10' E 134°59'1520.4
2017-Nov-16 07:47N 34°25' E 135°01'620.3
2017-Nov-16 07:30N 34°31' E 135°02'714.3
2017-Nov-16 07:00N 34°37' E 134°58'  
2017-Nov-13 02:00N 34°39' E 135°16'2 4.2
2017-Nov-13 01:30N 34°41' E 135°13'0 0.0
2017-Nov-13 00:55N 34°41' E 135°13'0 0.0
2017-Nov-13 00:25N 34°41' E 135°13'0 0.0
2017-Nov-12 23:59N 34°41' E 135°13'2 4.8
2017-Nov-12 23:30N 34°39' E 135°16'816.7
2017-Nov-12 23:00N 34°31' E 135°12'1020.1
2017-Nov-12 22:30N 34°24' E 135°04'1020.0
2017-Nov-12 22:00N 34°15' E 134°59'1020.6
2017-Nov-12 21:30N 34°04' E 135°00'229 6.7
2017-Nov-11 11:33N 34°60' E 139°29'115.1
2017-Nov-11 11:30N 35°00' E 139°30'815.7
2017-Nov-11 11:00N 35°04' E 139°38'815.1
2017-Nov-11 10:30N 35°10' E 139°45'612.9
2017-Nov-11 10:00N 35°16' E 139°46'613.0
2017-Nov-11 09:30N 35°22' E 139°42'714.5
2017-Nov-11 09:00N 35°28' E 139°47'2 5.0
2017-Nov-11 08:30N 35°30' E 139°46'0 0.0
2017-Nov-11 07:59N 35°30' E 139°46'0 0.0
2017-Nov-11 07:29N 35°30' E 139°46'0 0.0
2017-Nov-11 06:53N 35°30' E 139°46'0 0.0
2017-Nov-11 06:29N 35°30' E 139°46'0 0.0
2017-Nov-11 05:59N 35°30' E 139°46'0 0.0
2017-Nov-11 05:29N 35°30' E 139°46'0 0.0
2017-Nov-11 04:59N 35°30' E 139°46'0 0.0
2017-Nov-11 04:29N 35°30' E 139°46'0 0.0
2017-Nov-11 03:59N 35°30' E 139°46'0 0.0
2017-Nov-11 03:26N 35°30' E 139°46'1 2.6
2017-Nov-11 03:00N 35°30' E 139°45'4 7.8
2017-Nov-11 02:30N 35°26' E 139°44'611.0
2017-Nov-11 02:00N 35°21' E 139°44'5 9.6
2017-Nov-11 01:30N 35°19' E 139°39'0 0.1
2017-Nov-11 00:55N 35°19' E 139°39'0 0.0
2017-Nov-11 00:25N 35°19' E 139°39'0 0.0
2017-Nov-10 23:58N 35°19' E 139°39'0 0.0
2017-Nov-10 23:30N 35°19' E 139°39'0 0.0
2017-Nov-10 23:00N 35°19' E 139°39'0 0.0
2017-Nov-10 22:31N 35°19' E 139°39'0 0.0
2017-Nov-10 22:01N 35°19' E 139°39'0 0.0
2017-Nov-10 21:31N 35°19' E 139°39'0 0.7
2017-Nov-10 21:01N 35°19' E 139°39'2 3.1
2017-Nov-10 20:30N 35°20' E 139°41'0 0.3
2017-Nov-10 20:00N 35°20' E 139°41'0 0.1
2017-Nov-10 19:30N 35°20' E 139°41'0 0.3
2017-Nov-10 19:00N 35°20' E 139°41'0 0.0
2017-Nov-10 18:30N 35°20' E 139°41'0 0.2
2017-Nov-10 18:01N 35°20' E 139°41'0 0.1
2017-Nov-10 17:31N 35°20' E 139°41'0 0.0
2017-Nov-10 17:00N 35°20' E 139°41'0 0.1
2017-Nov-10 16:30N 35°20' E 139°41'0 0.2
2017-Nov-10 15:59N 35°20' E 139°41'0 0.2
2017-Nov-10 15:29N 35°20' E 139°41'0 0.0
2017-Nov-10 14:59N 35°20' E 139°41'0 0.1
2017-Nov-10 14:29N 35°20' E 139°41'0 0.1
2017-Nov-10 13:59N 35°20' E 139°41'0 0.0
2017-Nov-10 13:29N 35°20' E 139°41'0 0.0
2017-Nov-10 12:59N 35°20' E 139°41'0 0.0
2017-Nov-10 12:29N 35°20' E 139°41'0 0.0
2017-Nov-10 11:59N 35°20' E 139°41'0 0.1
2017-Nov-10 11:29N 35°20' E 139°41'0 0.0
2017-Nov-10 10:59N 35°20' E 139°41'0 0.1
2017-Nov-10 10:29N 35°20' E 139°41'3 7.0
2017-Nov-10 10:01N 35°23' E 139°42'3 5.2
2017-Nov-10 09:30N 35°25' E 139°41'0 0.0
2017-Nov-10 08:58N 35°25' E 139°41'0 0.0
2017-Nov-10 08:28N 35°25' E 139°41'0 0.0
2017-Nov-10 07:58N 35°25' E 139°41'0 0.3
2017-Nov-10 07:30N 35°25' E 139°41'3 5.3
2017-Nov-10 07:00N 35°23' E 139°43'510.7
2017-Nov-10 06:30N 35°18' E 139°44'611.3
2017-Nov-10 06:00N 35°13' E 139°47'713.8
2017-Nov-10 05:30N 35°06' E 139°45'713.3
2017-Nov-10 05:01N 35°01' E 139°40'815.5
2017-Nov-10 04:31N 34°56' E 139°32'23213.4
2017-Nov-09 11:14N 34°01' E 134°59'616.0
2017-Nov-09 10:50N 34°08' E 134°59'516.6
2017-Nov-09 10:31N 34°13' E 134°58'916.1
2017-Nov-09 09:56N 34°22' E 134°60'715.8
2017-Nov-09 09:30N 34°29' E 135°02'814.7
2017-Nov-09 09:00N 34°36' E 135°02'815.3
2017-Nov-09 08:29N 34°34' E 134°53'  
Track history (hours):
 
Tides and Currents Weather Stations Pressure Air Temp Water Temp Dewpoint Dewpoint Depression Visibility Wind Speed Wind Dir Waves Ship Positions

Nichioh Maru

Last reported at 2017-Nov-17 22:28 UTC. Time now 2017-Nov-17 22:53 UTC.
Position N 35°19' E 139°39'.

Length 170 m; draft 6.5 m.

Type: Cargo ship. MMSI: 431003232.

Date/timePositionNaut miles runAvg speedWind from/ knotsBaromVisibWave heightAir tempDewpointWater temp
2017-Nov-17 22:28N 35°19' E 139°39'0 0.0
2017-Nov-17 21:58N 35°19' E 139°39'0 0.0
2017-Nov-17 21:22N 35°19' E 139°39'0 0.0
2017-Nov-17 20:58N 35°19' E 139°39'0 0.0
2017-Nov-17 20:28N 35°19' E 139°39'0 0.0
2017-Nov-17 19:58N 35°19' E 139°39'0 0.0
2017-Nov-17 19:28N 35°19' E 139°39'0 0.0
2017-Nov-17 18:58N 35°19' E 139°39'0 0.0
2017-Nov-17 18:28N 35°19' E 139°39'0 0.0
2017-Nov-17 17:58N 35°19' E 139°39'0 0.0
2017-Nov-17 17:28N 35°19' E 139°39'0 0.0
2017-Nov-17 16:58N 35°19' E 139°39'0 0.0
2017-Nov-17 16:28N 35°19' E 139°39'0 0.0
2017-Nov-17 15:58N 35°19' E 139°39'0 0.0
2017-Nov-17 15:28N 35°19' E 139°39'0 0.0
2017-Nov-17 14:58N 35°19' E 139°39'0 0.0
2017-Nov-17 14:28N 35°19' E 139°39'0 0.0
2017-Nov-17 13:58N 35°19' E 139°39'0 0.0
2017-Nov-17 13:28N 35°19' E 139°39'0 0.0
2017-Nov-17 12:58N 35°19' E 139°39'0 0.0
2017-Nov-17 12:28N 35°19' E 139°39'0 0.0
2017-Nov-17 11:58N 35°19' E 139°39'0 0.0
2017-Nov-17 11:28N 35°19' E 139°39'0 0.0
2017-Nov-17 10:58N 35°19' E 139°39'0 0.0
2017-Nov-17 10:28N 35°19' E 139°39'0 0.0
2017-Nov-17 09:58N 35°19' E 139°39'0 0.0
2017-Nov-17 09:28N 35°19' E 139°39'0 0.0
2017-Nov-17 08:58N 35°19' E 139°39'0 0.0
2017-Nov-17 08:28N 35°19' E 139°39'0 0.0
2017-Nov-17 07:58N 35°19' E 139°39'0 0.0
2017-Nov-17 07:28N 35°19' E 139°39'0 0.0
2017-Nov-17 06:58N 35°19' E 139°39'0 0.0
2017-Nov-17 06:28N 35°19' E 139°39'0 0.0
2017-Nov-17 05:59N 35°19' E 139°39'3 5.7
2017-Nov-17 05:31N 35°20' E 139°42'5 9.7
2017-Nov-17 05:00N 35°25' E 139°41'0 0.5
2017-Nov-17 04:29N 35°25' E 139°41'0 0.0
2017-Nov-17 03:59N 35°25' E 139°41'0 0.0
2017-Nov-17 03:28N 35°25' E 139°41'0 0.0
2017-Nov-17 02:59N 35°25' E 139°41'0 0.0
2017-Nov-17 02:29N 35°25' E 139°41'0 0.0
2017-Nov-17 01:59N 35°25' E 139°41'0 0.0
2017-Nov-17 01:29N 35°25' E 139°41'0 0.0
2017-Nov-17 00:59N 35°25' E 139°41'1 2.4
2017-Nov-17 00:30N 35°25' E 139°42'611.6
2017-Nov-17 00:00N 35°19' E 139°43'612.2
2017-Nov-16 23:31N 35°14' E 139°47'816.8
2017-Nov-16 23:00N 35°05' E 139°45'1019.3
2017-Nov-16 22:30N 34°59' E 139°36'23617.8
2017-Nov-16 09:14N 33°55' E 134°60'621.2
2017-Nov-16 08:56N 34°01' E 134°60'920.8
2017-Nov-16 08:30N 34°10' E 134°59'1520.4
2017-Nov-16 07:47N 34°25' E 135°01'620.3
2017-Nov-16 07:30N 34°31' E 135°02'714.3
2017-Nov-16 07:00N 34°37' E 134°58'  
2017-Nov-13 02:00N 34°39' E 135°16'2 4.2
2017-Nov-13 01:30N 34°41' E 135°13'0 0.0
2017-Nov-13 00:55N 34°41' E 135°13'0 0.0
2017-Nov-13 00:25N 34°41' E 135°13'0 0.0
2017-Nov-12 23:59N 34°41' E 135°13'2 4.8
2017-Nov-12 23:30N 34°39' E 135°16'816.7
2017-Nov-12 23:00N 34°31' E 135°12'1020.1
2017-Nov-12 22:30N 34°24' E 135°04'1020.0
2017-Nov-12 22:00N 34°15' E 134°59'1020.6
2017-Nov-12 21:30N 34°04' E 135°00'229 6.7
2017-Nov-11 11:33N 34°60' E 139°29'115.1
2017-Nov-11 11:30N 35°00' E 139°30'815.7
2017-Nov-11 11:00N 35°04' E 139°38'815.1
2017-Nov-11 10:30N 35°10' E 139°45'612.9
2017-Nov-11 10:00N 35°16' E 139°46'613.0
2017-Nov-11 09:30N 35°22' E 139°42'714.5
2017-Nov-11 09:00N 35°28' E 139°47'2 5.0
2017-Nov-11 08:30N 35°30' E 139°46'0 0.0
2017-Nov-11 07:59N 35°30' E 139°46'0 0.0
2017-Nov-11 07:29N 35°30' E 139°46'0 0.0
2017-Nov-11 06:53N 35°30' E 139°46'0 0.0
2017-Nov-11 06:29N 35°30' E 139°46'0 0.0
2017-Nov-11 05:59N 35°30' E 139°46'0 0.0
2017-Nov-11 05:29N 35°30' E 139°46'0 0.0
2017-Nov-11 04:59N 35°30' E 139°46'0 0.0
2017-Nov-11 04:29N 35°30' E 139°46'0 0.0
2017-Nov-11 03:59N 35°30' E 139°46'0 0.0
2017-Nov-11 03:26N 35°30' E 139°46'1 2.6
2017-Nov-11 03:00N 35°30' E 139°45'4 7.8
2017-Nov-11 02:30N 35°26' E 139°44'611.0
2017-Nov-11 02:00N 35°21' E 139°44'5 9.6
2017-Nov-11 01:30N 35°19' E 139°39'0 0.1
2017-Nov-11 00:55N 35°19' E 139°39'0 0.0
2017-Nov-11 00:25N 35°19' E 139°39'0 0.0
2017-Nov-10 23:58N 35°19' E 139°39'0 0.0
2017-Nov-10 23:30N 35°19' E 139°39'0 0.0
2017-Nov-10 23:00N 35°19' E 139°39'0 0.0
2017-Nov-10 22:31N 35°19' E 139°39'0 0.0
2017-Nov-10 22:01N 35°19' E 139°39'0 0.0
2017-Nov-10 21:31N 35°19' E 139°39'0 0.7
2017-Nov-10 21:01N 35°19' E 139°39'2 3.1
2017-Nov-10 20:30N 35°20' E 139°41'0 0.3
2017-Nov-10 20:00N 35°20' E 139°41'0 0.1
2017-Nov-10 19:30N 35°20' E 139°41'0 0.3
2017-Nov-10 19:00N 35°20' E 139°41'0 0.0
2017-Nov-10 18:30N 35°20' E 139°41'0 0.2
2017-Nov-10 18:01N 35°20' E 139°41'0 0.1
2017-Nov-10 17:31N 35°20' E 139°41'0 0.0
2017-Nov-10 17:00N 35°20' E 139°41'0 0.1
2017-Nov-10 16:30N 35°20' E 139°41'0 0.2
2017-Nov-10 15:59N 35°20' E 139°41'0 0.2
2017-Nov-10 15:29N 35°20' E 139°41'0 0.0
2017-Nov-10 14:59N 35°20' E 139°41'0 0.1
2017-Nov-10 14:29N 35°20' E 139°41'0 0.1
2017-Nov-10 13:59N 35°20' E 139°41'0 0.0
2017-Nov-10 13:29N 35°20' E 139°41'0 0.0
2017-Nov-10 12:59N 35°20' E 139°41'0 0.0
2017-Nov-10 12:29N 35°20' E 139°41'0 0.0
2017-Nov-10 11:59N 35°20' E 139°41'0 0.1
2017-Nov-10 11:29N 35°20' E 139°41'0 0.0
2017-Nov-10 10:59N 35°20' E 139°41'0 0.1
2017-Nov-10 10:29N 35°20' E 139°41'3 7.0
2017-Nov-10 10:01N 35°23' E 139°42'3 5.2
2017-Nov-10 09:30N 35°25' E 139°41'0 0.0
2017-Nov-10 08:58N 35°25' E 139°41'0 0.0
2017-Nov-10 08:28N 35°25' E 139°41'0 0.0
2017-Nov-10 07:58N 35°25' E 139°41'0 0.3
2017-Nov-10 07:30N 35°25' E 139°41'3 5.3
2017-Nov-10 07:00N 35°23' E 139°43'510.7
2017-Nov-10 06:30N 35°18' E 139°44'611.3
2017-Nov-10 06:00N 35°13' E 139°47'713.8
2017-Nov-10 05:30N 35°06' E 139°45'713.3
2017-Nov-10 05:01N 35°01' E 139°40'815.5
2017-Nov-10 04:31N 34°56' E 139°32'23213.4
2017-Nov-09 11:14N 34°01' E 134°59'616.0
2017-Nov-09 10:50N 34°08' E 134°59'516.6
2017-Nov-09 10:31N 34°13' E 134°58'916.1
2017-Nov-09 09:56N 34°22' E 134°60'715.8
2017-Nov-09 09:30N 34°29' E 135°02'814.7
2017-Nov-09 09:00N 34°36' E 135°02'815.3
2017-Nov-09 08:29N 34°34' E 134°53'  

Dump ship's entire track history